sensor_id;sensor_type;location;lat;lon;timestamp;pressure;altitude;pressure_sealevel;temperature;humidity
62928;BME280;51070;52.236;-0.892;2023-02-03T00:00:37;101777.44;;;9.55;79.52
62928;BME280;51070;52.236;-0.892;2023-02-03T00:03:03;101770.77;;;9.56;79.37
62928;BME280;51070;52.236;-0.892;2023-02-03T00:05:30;101774.61;;;9.57;79.30
62928;BME280;51070;52.236;-0.892;2023-02-03T00:07:56;101775.08;;;9.59;79.42
62928;BME280;51070;52.236;-0.892;2023-02-03T00:10:22;101776.91;;;9.61;79.25
62928;BME280;51070;52.236;-0.892;2023-02-03T00:12:51;101777.11;;;9.65;79.23
62928;BME280;51070;52.236;-0.892;2023-02-03T00:15:17;101781.07;;;9.68;79.19
62928;BME280;51070;52.236;-0.892;2023-02-03T00:17:43;101783.27;;;9.71;79.03
62928;BME280;51070;52.236;-0.892;2023-02-03T00:20:09;101784.39;;;9.73;79.12
62928;BME280;51070;52.236;-0.892;2023-02-03T00:22:35;101783.95;;;9.74;79.56
62928;BME280;51070;52.236;-0.892;2023-02-03T00:25:00;101784.67;;;9.74;79.57
62928;BME280;51070;52.236;-0.892;2023-02-03T00:27:26;101778.49;;;9.75;79.77
62928;BME280;51070;52.236;-0.892;2023-02-03T00:29:51;101789.11;;;9.77;79.69
62928;BME280;51070;52.236;-0.892;2023-02-03T00:32:17;101798.46;;;9.78;79.56
62928;BME280;51070;52.236;-0.892;2023-02-03T00:34:42;101808.32;;;9.78;79.44
62928;BME280;51070;52.236;-0.892;2023-02-03T00:37:08;101813.66;;;9.78;79.54
62928;BME280;51070;52.236;-0.892;2023-02-03T00:39:35;101811.89;;;9.77;79.55
62928;BME280;51070;52.236;-0.892;2023-02-03T00:42:03;101814.65;;;9.77;79.74
62928;BME280;51070;52.236;-0.892;2023-02-03T00:44:28;101811.98;;;9.75;79.83
62928;BME280;51070;52.236;-0.892;2023-02-03T00:46:54;101809.21;;;9.75;79.85
62928;BME280;51070;52.236;-0.892;2023-02-03T00:49:19;101797.02;;;9.76;79.88
62928;BME280;51070;52.236;-0.892;2023-02-03T00:51:44;101794.47;;;9.77;79.83
62928;BME280;51070;52.236;-0.892;2023-02-03T00:54:10;101786.34;;;9.77;79.96
62928;BME280;51070;52.236;-0.892;2023-02-03T00:56:35;101779.56;;;9.76;79.98
62928;BME280;51070;52.236;-0.892;2023-02-03T00:59:01;101774.07;;;9.73;79.99
62928;BME280;51070;52.236;-0.892;2023-02-03T01:01:26;101769.70;;;9.69;80.26
62928;BME280;51070;52.236;-0.892;2023-02-03T01:03:54;101775.42;;;9.62;80.33
62928;BME280;51070;52.236;-0.892;2023-02-03T01:06:20;101781.36;;;9.57;80.50
62928;BME280;51070;52.236;-0.892;2023-02-03T01:08:46;101784.98;;;9.54;80.73
62928;BME280;51070;52.236;-0.892;2023-02-03T01:11:15;101787.74;;;9.51;81.08
62928;BME280;51070;52.236;-0.892;2023-02-03T01:13:42;101780.40;;;9.49;81.00
62928;BME280;51070;52.236;-0.892;2023-02-03T01:16:13;101781.36;;;9.48;81.18
62928;BME280;51070;52.236;-0.892;2023-02-03T01:18:39;101783.61;;;9.45;81.16
62928;BME280;51070;52.236;-0.892;2023-02-03T01:21:10;101776.34;;;9.41;81.57
62928;BME280;51070;52.236;-0.892;2023-02-03T01:23:37;101775.82;;;9.38;81.58
62928;BME280;51070;52.236;-0.892;2023-02-03T01:26:04;101771.96;;;9.33;81.66
62928;BME280;51070;52.236;-0.892;2023-02-03T01:28:31;101767.30;;;9.30;81.98
62928;BME280;51070;52.236;-0.892;2023-02-03T01:30:56;101752.84;;;9.27;82.06
62928;BME280;51070;52.236;-0.892;2023-02-03T01:33:22;101744.95;;;9.25;82.17
62928;BME280;51070;52.236;-0.892;2023-02-03T01:35:47;101740.71;;;9.23;82.45
62928;BME280;51070;52.236;-0.892;2023-02-03T01:38:13;101748.20;;;9.21;82.62
62928;BME280;51070;52.236;-0.892;2023-02-03T01:40:44;101747.86;;;9.18;82.79
62928;BME280;51070;52.236;-0.892;2023-02-03T01:43:10;101748.78;;;9.16;82.83
62928;BME280;51070;52.236;-0.892;2023-02-03T01:45:36;101746.05;;;9.14;83.02
62928;BME280;51070;52.236;-0.892;2023-02-03T01:48:03;101754.76;;;9.12;83.19
62928;BME280;51070;52.236;-0.892;2023-02-03T01:50:48;101764.02;;;9.11;83.25
62928;BME280;51070;52.236;-0.892;2023-02-03T01:53:14;101773.86;;;9.11;83.46
62928;BME280;51070;52.236;-0.892;2023-02-03T01:55:42;101781.59;;;9.11;83.85
62928;BME280;51070;52.236;-0.892;2023-02-03T01:58:17;101783.72;;;9.12;83.76
62928;BME280;51070;52.236;-0.892;2023-02-03T02:00:48;101781.81;;;9.11;84.05
62928;BME280;51070;52.236;-0.892;2023-02-03T02:03:14;101786.57;;;9.10;83.95
62928;BME280;51070;52.236;-0.892;2023-02-03T02:05:46;101787.14;;;9.08;84.10
62928;BME280;51070;52.236;-0.892;2023-02-03T02:08:14;101785.42;;;9.05;84.57
62928;BME280;51070;52.236;-0.892;2023-02-03T02:10:40;101781.63;;;9.02;84.36
62928;BME280;51070;52.236;-0.892;2023-02-03T02:13:06;101783.20;;;8.99;84.65
62928;BME280;51070;52.236;-0.892;2023-02-03T02:16:17;101778.65;;;8.98;84.59
62928;BME280;51070;52.236;-0.892;2023-02-03T02:38:34;101777.16;;;8.87;86.54
62928;BME280;51070;52.236;-0.892;2023-02-03T02:43:55;101784.48;;;8.92;86.97
62928;BME280;51070;52.236;-0.892;2023-02-03T02:46:38;101788.27;;;8.94;87.02
62928;BME280;51070;52.236;-0.892;2023-02-03T02:51:46;101779.96;;;8.97;87.09
62928;BME280;51070;52.236;-0.892;2023-02-03T02:54:17;101778.27;;;8.98;87.05
62928;BME280;51070;52.236;-0.892;2023-02-03T02:56:48;101786.48;;;8.99;87.12
62928;BME280;51070;52.236;-0.892;2023-02-03T02:59:15;101789.17;;;9.01;87.07
62928;BME280;51070;52.236;-0.892;2023-02-03T03:01:41;101789.25;;;9.03;86.97
62928;BME280;51070;52.236;-0.892;2023-02-03T03:04:07;101790.91;;;9.05;86.87
62928;BME280;51070;52.236;-0.892;2023-02-03T03:06:48;101795.15;;;9.06;86.97
62928;BME280;51070;52.236;-0.892;2023-02-03T03:09:30;101792.78;;;9.08;86.97
62928;BME280;51070;52.236;-0.892;2023-02-03T03:14:31;101793.54;;;9.02;86.67
62928;BME280;51070;52.236;-0.892;2023-02-03T03:17:03;101790.72;;;8.98;86.43
62928;BME280;51070;52.236;-0.892;2023-02-03T03:19:39;101788.60;;;8.94;86.91
62928;BME280;51070;52.236;-0.892;2023-02-03T03:22:09;101787.57;;;8.91;86.75
62928;BME280;51070;52.236;-0.892;2023-02-03T03:24:37;101793.63;;;8.89;86.99
62928;BME280;51070;52.236;-0.892;2023-02-03T03:27:08;101780.52;;;8.85;86.95
62928;BME280;51070;52.236;-0.892;2023-02-03T03:29:43;101777.51;;;8.83;87.38
62928;BME280;51070;52.236;-0.892;2023-02-03T03:32:11;101776.61;;;8.83;87.34
62928;BME280;51070;52.236;-0.892;2023-02-03T03:34:37;101776.75;;;8.82;87.88
62928;BME280;51070;52.236;-0.892;2023-02-03T03:37:13;101774.89;;;8.83;87.71
62928;BME280;51070;52.236;-0.892;2023-02-03T03:39:54;101781.09;;;8.83;87.60
62928;BME280;51070;52.236;-0.892;2023-02-03T03:44:50;101786.14;;;8.83;87.75
62928;BME280;51070;52.236;-0.892;2023-02-03T03:50:10;101783.75;;;8.84;87.85
62928;BME280;51070;52.236;-0.892;2023-02-03T03:52:37;101783.40;;;8.84;87.90
62928;BME280;51070;52.236;-0.892;2023-02-03T03:55:07;101775.86;;;8.82;87.79
62928;BME280;51070;52.236;-0.892;2023-02-03T03:57:44;101782.15;;;8.80;87.79
62928;BME280;51070;52.236;-0.892;2023-02-03T04:00:14;101793.19;;;8.77;87.69
62928;BME280;51070;52.236;-0.892;2023-02-03T04:02:45;101795.67;;;8.76;87.77
62928;BME280;51070;52.236;-0.892;2023-02-03T04:05:15;101800.77;;;8.74;88.06
62928;BME280;51070;52.236;-0.892;2023-02-03T04:07:43;101803.20;;;8.75;88.04
62928;BME280;51070;52.236;-0.892;2023-02-03T04:12:53;101817.34;;;8.81;88.40
62928;BME280;51070;52.236;-0.892;2023-02-03T04:15:18;101819.86;;;8.86;88.37
62928;BME280;51070;52.236;-0.892;2023-02-03T04:17:44;101823.79;;;8.92;87.92
62928;BME280;51070;52.236;-0.892;2023-02-03T04:20:10;101828.91;;;8.97;87.99
62928;BME280;51070;52.236;-0.892;2023-02-03T04:22:36;101828.62;;;9.01;87.50
62928;BME280;51070;52.236;-0.892;2023-02-03T04:25:01;101833.98;;;9.04;87.80
62928;BME280;51070;52.236;-0.892;2023-02-03T04:27:26;101834.67;;;9.07;87.51
62928;BME280;51070;52.236;-0.892;2023-02-03T04:29:52;101828.80;;;9.10;87.58
62928;BME280;51070;52.236;-0.892;2023-02-03T04:32:18;101829.09;;;9.12;87.33
62928;BME280;51070;52.236;-0.892;2023-02-03T04:34:44;101832.21;;;9.15;87.23
62928;BME280;51070;52.236;-0.892;2023-02-03T04:37:10;101829.97;;;9.19;86.95
62928;BME280;51070;52.236;-0.892;2023-02-03T04:39:35;101828.23;;;9.21;86.85
62928;BME280;51070;52.236;-0.892;2023-02-03T04:42:01;101830.61;;;9.24;86.63
62928;BME280;51070;52.236;-0.892;2023-02-03T04:44:26;101826.25;;;9.23;86.87
62928;BME280;51070;52.236;-0.892;2023-02-03T04:46:51;101826.66;;;9.21;86.70
62928;BME280;51070;52.236;-0.892;2023-02-03T04:49:17;101824.80;;;9.19;86.78
62928;BME280;51070;52.236;-0.892;2023-02-03T04:51:42;101826.91;;;9.16;86.75
62928;BME280;51070;52.236;-0.892;2023-02-03T04:54:09;101829.61;;;9.12;86.78
62928;BME280;51070;52.236;-0.892;2023-02-03T04:56:35;101830.84;;;9.10;87.09
62928;BME280;51070;52.236;-0.892;2023-02-03T04:59:01;101833.84;;;9.07;87.06
62928;BME280;51070;52.236;-0.892;2023-02-03T05:01:27;101830.44;;;9.05;87.06
62928;BME280;51070;52.236;-0.892;2023-02-03T05:03:52;101829.30;;;9.04;87.34
62928;BME280;51070;52.236;-0.892;2023-02-03T05:06:22;101830.26;;;9.03;87.40
62928;BME280;51070;52.236;-0.892;2023-02-03T05:08:48;101831.95;;;9.02;87.50
62928;BME280;51070;52.236;-0.892;2023-02-03T05:11:14;101838.40;;;9.00;87.41
62928;BME280;51070;52.236;-0.892;2023-02-03T05:13:39;101841.57;;;8.98;87.59
62928;BME280;51070;52.236;-0.892;2023-02-03T05:16:05;101847.85;;;8.96;88.07
62928;BME280;51070;52.236;-0.892;2023-02-03T05:18:31;101849.35;;;8.95;87.81
62928;BME280;51070;52.236;-0.892;2023-02-03T05:20:56;101853.42;;;8.94;88.16
62928;BME280;51070;52.236;-0.892;2023-02-03T05:23:21;101847.76;;;8.94;88.37
62928;BME280;51070;52.236;-0.892;2023-02-03T05:25:47;101851.22;;;8.95;88.71
62928;BME280;51070;52.236;-0.892;2023-02-03T05:28:13;101846.08;;;8.95;88.84
62928;BME280;51070;52.236;-0.892;2023-02-03T05:30:38;101851.95;;;8.95;89.05
62928;BME280;51070;52.236;-0.892;2023-02-03T05:33:04;101855.93;;;8.96;89.06
62928;BME280;51070;52.236;-0.892;2023-02-03T05:35:29;101851.24;;;8.95;88.89
62928;BME280;51070;52.236;-0.892;2023-02-03T05:37:54;101855.52;;;8.95;89.20
62928;BME280;51070;52.236;-0.892;2023-02-03T05:40:20;101856.05;;;8.95;89.40
62928;BME280;51070;52.236;-0.892;2023-02-03T05:43:04;101849.89;;;8.96;89.72
62928;BME280;51070;52.236;-0.892;2023-02-03T05:45:30;101843.40;;;8.97;89.97
62928;BME280;51070;52.236;-0.892;2023-02-03T05:47:55;101847.85;;;8.99;90.04
62928;BME280;51070;52.236;-0.892;2023-02-03T05:50:21;101852.64;;;9.01;90.17
62928;BME280;51070;52.236;-0.892;2023-02-03T05:52:47;101852.34;;;9.03;90.11
62928;BME280;51070;52.236;-0.892;2023-02-03T05:55:13;101855.52;;;9.04;90.27
62928;BME280;51070;52.236;-0.892;2023-02-03T05:57:38;101858.64;;;9.04;90.48
62928;BME280;51070;52.236;-0.892;2023-02-03T06:00:05;101860.17;;;9.04;90.34
62928;BME280;51070;52.236;-0.892;2023-02-03T06:02:31;101866.01;;;9.03;90.22
62928;BME280;51070;52.236;-0.892;2023-02-03T06:04:56;101867.89;;;9.03;90.41
62928;BME280;51070;52.236;-0.892;2023-02-03T06:07:22;101869.29;;;9.03;90.73
62928;BME280;51070;52.236;-0.892;2023-02-03T06:09:47;101865.70;;;9.04;90.76
62928;BME280;51070;52.236;-0.892;2023-02-03T06:12:14;101867.67;;;9.05;90.82
62928;BME280;51070;52.236;-0.892;2023-02-03T06:14:40;101867.92;;;9.06;90.74
62928;BME280;51070;52.236;-0.892;2023-02-03T06:17:05;101872.39;;;9.06;90.64
62928;BME280;51070;52.236;-0.892;2023-02-03T06:19:31;101871.52;;;9.06;90.94
62928;BME280;51070;52.236;-0.892;2023-02-03T06:21:56;101870.88;;;9.04;90.94
62928;BME280;51070;52.236;-0.892;2023-02-03T06:24:21;101875.77;;;9.02;91.28
62928;BME280;51070;52.236;-0.892;2023-02-03T06:26:47;101871.70;;;9.00;91.26
62928;BME280;51070;52.236;-0.892;2023-02-03T06:29:12;101877.17;;;8.99;91.22
62928;BME280;51070;52.236;-0.892;2023-02-03T06:31:37;101880.41;;;8.99;91.17
62928;BME280;51070;52.236;-0.892;2023-02-03T06:34:03;101888.16;;;8.99;91.17
62928;BME280;51070;52.236;-0.892;2023-02-03T06:36:28;101899.67;;;8.98;91.48
62928;BME280;51070;52.236;-0.892;2023-02-03T06:38:54;101895.36;;;8.98;91.65
62928;BME280;51070;52.236;-0.892;2023-02-03T06:41:19;101903.56;;;8.97;91.71
62928;BME280;51070;52.236;-0.892;2023-02-03T06:43:44;101904.05;;;8.96;91.72
62928;BME280;51070;52.236;-0.892;2023-02-03T06:46:10;101902.91;;;8.95;91.62
62928;BME280;51070;52.236;-0.892;2023-02-03T06:48:35;101902.44;;;8.93;91.91
62928;BME280;51070;52.236;-0.892;2023-02-03T06:51:01;101899.44;;;8.91;92.09
62928;BME280;51070;52.236;-0.892;2023-02-03T06:53:26;101898.39;;;8.91;92.31
62928;BME280;51070;52.236;-0.892;2023-02-03T06:55:52;101898.19;;;8.90;92.18
62928;BME280;51070;52.236;-0.892;2023-02-03T06:58:17;101903.54;;;8.90;92.38
62928;BME280;51070;52.236;-0.892;2023-02-03T07:00:42;101903.01;;;8.90;92.43
62928;BME280;51070;52.236;-0.892;2023-02-03T07:03:08;101901.04;;;8.89;92.63
62928;BME280;51070;52.236;-0.892;2023-02-03T07:05:33;101893.23;;;8.88;92.69
62928;BME280;51070;52.236;-0.892;2023-02-03T07:08:01;101897.10;;;8.86;92.63
62928;BME280;51070;52.236;-0.892;2023-02-03T07:10:26;101901.01;;;8.85;92.79
62928;BME280;51070;52.236;-0.892;2023-02-03T07:12:51;101892.73;;;8.85;92.80
62928;BME280;51070;52.236;-0.892;2023-02-03T07:15:17;101883.57;;;8.84;93.07
62928;BME280;51070;52.236;-0.892;2023-02-03T07:17:43;101884.54;;;8.83;93.30
62928;BME280;51070;52.236;-0.892;2023-02-03T07:20:09;101881.96;;;8.83;93.08
62928;BME280;51070;52.236;-0.892;2023-02-03T07:22:34;101883.58;;;8.85;93.24
62928;BME280;51070;52.236;-0.892;2023-02-03T07:25:00;101886.84;;;8.84;93.28
62928;BME280;51070;52.236;-0.892;2023-02-03T07:27:26;101887.61;;;8.83;93.27
62928;BME280;51070;52.236;-0.892;2023-02-03T07:29:52;101890.45;;;8.81;93.31
62928;BME280;51070;52.236;-0.892;2023-02-03T07:32:18;101892.52;;;8.82;93.52
62928;BME280;51070;52.236;-0.892;2023-02-03T07:34:43;101894.26;;;8.81;93.53
62928;BME280;51070;52.236;-0.892;2023-02-03T07:37:08;101893.28;;;8.82;93.91
62928;BME280;51070;52.236;-0.892;2023-02-03T07:39:34;101890.12;;;8.84;93.49
62928;BME280;51070;52.236;-0.892;2023-02-03T07:41:59;101891.41;;;8.86;93.55
62928;BME280;51070;52.236;-0.892;2023-02-03T07:44:25;101890.66;;;8.88;93.53
62928;BME280;51070;52.236;-0.892;2023-02-03T07:46:50;101893.10;;;8.89;93.77
62928;BME280;51070;52.236;-0.892;2023-02-03T07:49:16;101891.01;;;8.89;93.49
62928;BME280;51070;52.236;-0.892;2023-02-03T07:51:41;101893.27;;;8.89;93.58
62928;BME280;51070;52.236;-0.892;2023-02-03T07:54:06;101888.52;;;8.90;93.35
62928;BME280;51070;52.236;-0.892;2023-02-03T07:56:32;101894.43;;;8.91;93.42
62928;BME280;51070;52.236;-0.892;2023-02-03T07:58:58;101893.67;;;8.93;93.27
62928;BME280;51070;52.236;-0.892;2023-02-03T08:01:25;101897.73;;;8.94;93.31
62928;BME280;51070;52.236;-0.892;2023-02-03T08:03:51;101899.70;;;8.95;93.23
62928;BME280;51070;52.236;-0.892;2023-02-03T08:06:16;101903.02;;;8.96;93.01
62928;BME280;51070;52.236;-0.892;2023-02-03T08:08:42;101899.23;;;8.97;93.06
62928;BME280;51070;52.236;-0.892;2023-02-03T08:11:08;101900.49;;;8.97;92.98
62928;BME280;51070;52.236;-0.892;2023-02-03T08:13:34;101911.99;;;8.99;92.83
62928;BME280;51070;52.236;-0.892;2023-02-03T08:15:59;101921.56;;;9.01;92.83
62928;BME280;51070;52.236;-0.892;2023-02-03T08:18:25;101925.64;;;9.03;92.74
62928;BME280;51070;52.236;-0.892;2023-02-03T08:20:50;101933.47;;;9.07;92.73
62928;BME280;51070;52.236;-0.892;2023-02-03T08:23:15;101937.80;;;9.10;92.52
62928;BME280;51070;52.236;-0.892;2023-02-03T08:25:41;101947.04;;;9.12;92.35
62928;BME280;51070;52.236;-0.892;2023-02-03T08:28:06;101945.21;;;9.13;92.38
62928;BME280;51070;52.236;-0.892;2023-02-03T08:30:32;101947.13;;;9.13;92.28
62928;BME280;51070;52.236;-0.892;2023-02-03T08:32:57;101943.91;;;9.15;92.21
62928;BME280;51070;52.236;-0.892;2023-02-03T08:35:23;101943.73;;;9.17;92.10
62928;BME280;51070;52.236;-0.892;2023-02-03T08:37:49;101942.49;;;9.20;91.97
62928;BME280;51070;52.236;-0.892;2023-02-03T08:40:14;101955.15;;;9.24;92.06
62928;BME280;51070;52.236;-0.892;2023-02-03T08:42:39;101960.86;;;9.27;91.92
62928;BME280;51070;52.236;-0.892;2023-02-03T08:45:06;101973.10;;;9.30;91.60
62928;BME280;51070;52.236;-0.892;2023-02-03T08:47:31;101974.98;;;9.33;91.42
62928;BME280;51070;52.236;-0.892;2023-02-03T08:49:57;101973.32;;;9.37;91.35
62928;BME280;51070;52.236;-0.892;2023-02-03T08:52:22;101975.04;;;9.40;91.19
62928;BME280;51070;52.236;-0.892;2023-02-03T08:54:48;101977.31;;;9.44;91.04
62928;BME280;51070;52.236;-0.892;2023-02-03T08:57:13;101986.05;;;9.49;91.11
62928;BME280;51070;52.236;-0.892;2023-02-03T08:59:40;101992.91;;;9.54;90.86
62928;BME280;51070;52.236;-0.892;2023-02-03T09:02:09;102003.43;;;9.60;90.57
62928;BME280;51070;52.236;-0.892;2023-02-03T09:04:35;102012.58;;;9.63;90.16
62928;BME280;51070;52.236;-0.892;2023-02-03T09:07:01;102019.14;;;9.66;89.99
62928;BME280;51070;52.236;-0.892;2023-02-03T09:09:28;102020.56;;;9.70;89.89
62928;BME280;51070;52.236;-0.892;2023-02-03T09:11:54;102027.11;;;9.73;89.74
62928;BME280;51070;52.236;-0.892;2023-02-03T09:14:30;102028.40;;;9.77;89.47
62928;BME280;51070;52.236;-0.892;2023-02-03T09:16:57;102026.98;;;9.83;89.28
62928;BME280;51070;52.236;-0.892;2023-02-03T09:19:23;102029.08;;;9.89;89.24
62928;BME280;51070;52.236;-0.892;2023-02-03T09:21:48;102026.98;;;9.95;88.79
62928;BME280;51070;52.236;-0.892;2023-02-03T09:24:15;102034.05;;;10.01;88.51
62928;BME280;51070;52.236;-0.892;2023-02-03T09:26:40;102040.52;;;10.06;88.09
62928;BME280;51070;52.236;-0.892;2023-02-03T09:29:06;102051.33;;;10.11;88.06
62928;BME280;51070;52.236;-0.892;2023-02-03T09:31:33;102058.01;;;10.16;87.86
62928;BME280;51070;52.236;-0.892;2023-02-03T09:33:59;102060.73;;;10.21;87.63
62928;BME280;51070;52.236;-0.892;2023-02-03T09:36:25;102061.02;;;10.26;87.61
62928;BME280;51070;52.236;-0.892;2023-02-03T09:38:51;102060.73;;;10.33;87.22
62928;BME280;51070;52.236;-0.892;2023-02-03T09:44:11;102068.21;;;10.47;86.60
62928;BME280;51070;52.236;-0.892;2023-02-03T09:46:44;102077.05;;;10.54;86.20
62928;BME280;51070;52.236;-0.892;2023-02-03T09:52:00;102098.95;;;10.66;85.72
62928;BME280;51070;52.236;-0.892;2023-02-03T09:54:35;102110.06;;;10.73;85.28
62928;BME280;51070;52.236;-0.892;2023-02-03T09:57:05;102115.23;;;10.79;85.22
62928;BME280;51070;52.236;-0.892;2023-02-03T09:59:37;102124.27;;;10.86;84.74
62928;BME280;51070;52.236;-0.892;2023-02-03T10:05:19;102132.18;;;11.02;84.38
62928;BME280;51070;52.236;-0.892;2023-02-03T10:08:06;102133.67;;;11.07;83.74
62928;BME280;51070;52.236;-0.892;2023-02-03T10:10:41;102125.07;;;11.11;83.63
62928;BME280;51070;52.236;-0.892;2023-02-03T10:18:37;102120.63;;;11.22;83.38
62928;BME280;51070;52.236;-0.892;2023-02-03T10:21:16;102126.16;;;11.29;82.73
62928;BME280;51070;52.236;-0.892;2023-02-03T10:23:44;102137.35;;;11.34;82.58
62928;BME280;51070;52.236;-0.892;2023-02-03T10:26:18;102150.16;;;11.41;82.16
62928;BME280;51070;52.236;-0.892;2023-02-03T10:29:07;102154.57;;;11.46;81.91
62928;BME280;51070;52.236;-0.892;2023-02-03T10:31:37;102154.84;;;11.51;81.73
62928;BME280;51070;52.236;-0.892;2023-02-03T10:34:16;102163.34;;;11.69;80.61
62928;BME280;51070;52.236;-0.892;2023-02-03T10:39:53;102147.45;;;12.03;80.19
62928;BME280;51070;52.236;-0.892;2023-02-03T10:42:19;102150.27;;;12.33;79.52
62928;BME280;51070;52.236;-0.892;2023-02-03T10:44:57;102157.23;;;12.67;78.69
62928;BME280;51070;52.236;-0.892;2023-02-03T10:47:31;102159.90;;;12.95;77.03
62928;BME280;51070;52.236;-0.892;2023-02-03T10:50:04;102169.90;;;13.20;76.13
62928;BME280;51070;52.236;-0.892;2023-02-03T10:52:33;102169.10;;;13.33;75.01
62928;BME280;51070;52.236;-0.892;2023-02-03T10:55:05;102178.69;;;13.38;75.03
62928;BME280;51070;52.236;-0.892;2023-02-03T10:57:34;102183.83;;;13.40;74.66
62928;BME280;51070;52.236;-0.892;2023-02-03T11:03:03;102191.98;;;13.43;74.29
62928;BME280;51070;52.236;-0.892;2023-02-03T11:05:29;102192.35;;;13.40;74.30
62928;BME280;51070;52.236;-0.892;2023-02-03T11:07:55;102197.73;;;13.40;73.34
62928;BME280;51070;52.236;-0.892;2023-02-03T11:10:36;102195.55;;;13.42;73.54
62928;BME280;51070;52.236;-0.892;2023-02-03T11:21:19;102200.96;;;13.39;72.77
62928;BME280;51070;52.236;-0.892;2023-02-03T11:24:12;102203.50;;;13.45;73.33
62928;BME280;51070;52.236;-0.892;2023-02-03T11:26:40;102205.69;;;13.56;72.62
62928;BME280;51070;52.236;-0.892;2023-02-03T11:29:17;102204.95;;;13.62;72.61
62928;BME280;51070;52.236;-0.892;2023-02-03T11:31:47;102208.00;;;13.64;72.46
62928;BME280;51070;52.236;-0.892;2023-02-03T11:34:16;102209.66;;;13.67;72.03
62928;BME280;51070;52.236;-0.892;2023-02-03T11:36:43;102212.17;;;13.73;72.08
62928;BME280;51070;52.236;-0.892;2023-02-03T11:39:09;102215.79;;;13.75;71.95
62928;BME280;51070;52.236;-0.892;2023-02-03T11:41:39;102213.19;;;13.76;71.29
62928;BME280;51070;52.236;-0.892;2023-02-03T11:44:15;102211.79;;;13.76;71.86
62928;BME280;51070;52.236;-0.892;2023-02-03T11:46:42;102211.64;;;13.84;71.11
62928;BME280;51070;52.236;-0.892;2023-02-03T11:49:28;102210.68;;;13.78;70.59
62928;BME280;51070;52.236;-0.892;2023-02-03T12:00:49;102205.04;;;13.72;71.12
62928;BME280;51070;52.236;-0.892;2023-02-03T12:09:14;102220.09;;;13.83;70.95
62928;BME280;51070;52.236;-0.892;2023-02-03T12:14:42;102225.86;;;13.76;70.57
62928;BME280;51070;52.236;-0.892;2023-02-03T12:18:04;102226.63;;;13.65;70.92
62928;BME280;51070;52.236;-0.892;2023-02-03T12:26:02;102229.28;;;13.43;71.39
62928;BME280;51070;52.236;-0.892;2023-02-03T12:28:57;102235.57;;;13.32;71.59
62928;BME280;51070;52.236;-0.892;2023-02-03T12:31:26;102236.48;;;13.22;72.00
62928;BME280;51070;52.236;-0.892;2023-02-03T12:36:56;102247.08;;;13.25;72.54
62928;BME280;51070;52.236;-0.892;2023-02-03T12:40:02;102251.85;;;13.35;72.46
62928;BME280;51070;52.236;-0.892;2023-02-03T12:42:43;102259.42;;;13.41;72.08
62928;BME280;51070;52.236;-0.892;2023-02-03T12:45:17;102265.73;;;13.39;72.16
62928;BME280;51070;52.236;-0.892;2023-02-03T12:47:54;102263.98;;;13.35;71.89
62928;BME280;51070;52.236;-0.892;2023-02-03T12:50:34;102262.94;;;13.27;71.92
62928;BME280;51070;52.236;-0.892;2023-02-03T12:53:15;102261.84;;;13.18;72.23
62928;BME280;51070;52.236;-0.892;2023-02-03T12:55:50;102256.67;;;13.12;72.80
62928;BME280;51070;52.236;-0.892;2023-02-03T12:58:48;102252.41;;;13.07;72.81
62928;BME280;51070;52.236;-0.892;2023-02-03T13:01:25;102246.13;;;13.02;72.98
62928;BME280;51070;52.236;-0.892;2023-02-03T13:06:25;102242.22;;;12.92;73.44
62928;BME280;51070;52.236;-0.892;2023-02-03T13:09:07;102243.84;;;12.94;73.46
62928;BME280;51070;52.236;-0.892;2023-02-03T13:11:45;102240.07;;;12.98;73.66
62928;BME280;51070;52.236;-0.892;2023-02-03T13:16:49;102235.64;;;13.15;73.39
62928;BME280;51070;52.236;-0.892;2023-02-03T13:19:25;102232.77;;;13.24;73.02
62928;BME280;51070;52.236;-0.892;2023-02-03T13:21:52;102227.16;;;13.31;72.78
62928;BME280;51070;52.236;-0.892;2023-02-03T13:24:17;102223.75;;;13.36;72.93
62928;BME280;51070;52.236;-0.892;2023-02-03T13:29:48;102220.19;;;13.49;72.10
62928;BME280;51070;52.236;-0.892;2023-02-03T13:32:24;102218.77;;;13.53;71.67
62928;BME280;51070;52.236;-0.892;2023-02-03T13:37:45;102222.69;;;13.43;71.68
62928;BME280;51070;52.236;-0.892;2023-02-03T13:40:27;102224.59;;;13.35;71.81
62928;BME280;51070;52.236;-0.892;2023-02-03T13:43:03;102221.19;;;13.29;71.91
62928;BME280;51070;52.236;-0.892;2023-02-03T13:45:32;102224.48;;;13.21;72.08
62928;BME280;51070;52.236;-0.892;2023-02-03T13:48:18;102227.36;;;13.16;72.35
62928;BME280;51070;52.236;-0.892;2023-02-03T13:50:47;102227.98;;;13.11;72.62
62928;BME280;51070;52.236;-0.892;2023-02-03T13:53:21;102228.14;;;13.07;72.85
62928;BME280;51070;52.236;-0.892;2023-02-03T13:56:03;102232.39;;;13.05;72.76
62928;BME280;51070;52.236;-0.892;2023-02-03T13:58:32;102232.31;;;12.99;72.91
62928;BME280;51070;52.236;-0.892;2023-02-03T14:05:57;102224.09;;;13.10;73.65
62928;BME280;51070;52.236;-0.892;2023-02-03T14:19:02;102232.77;;;13.43;73.24
62928;BME280;51070;52.236;-0.892;2023-02-03T14:21:53;102231.58;;;13.44;73.03
62928;BME280;51070;52.236;-0.892;2023-02-03T14:24:22;102231.72;;;13.39;73.07
62928;BME280;51070;52.236;-0.892;2023-02-03T14:26:53;102230.55;;;13.33;72.93
62928;BME280;51070;52.236;-0.892;2023-02-03T14:29:29;102227.92;;;13.24;73.19
62928;BME280;51070;52.236;-0.892;2023-02-03T14:32:02;102223.50;;;13.19;73.38
62928;BME280;51070;52.236;-0.892;2023-02-03T14:34:35;102226.60;;;13.11;73.26
62928;BME280;51070;52.236;-0.892;2023-02-03T14:47:55;102237.82;;;12.88;74.57
62928;BME280;51070;52.236;-0.892;2023-02-03T14:50:37;102239.08;;;12.85;74.63
62928;BME280;51070;52.236;-0.892;2023-02-03T14:58:48;102235.42;;;12.88;74.63
62928;BME280;51070;52.236;-0.892;2023-02-03T15:06:41;102231.91;;;12.77;74.76
62928;BME280;51070;52.236;-0.892;2023-02-03T15:11:47;102242.28;;;12.54;75.18
62928;BME280;51070;52.236;-0.892;2023-02-03T15:14:23;102240.89;;;12.43;75.61
62928;BME280;51070;52.236;-0.892;2023-02-03T15:16:53;102245.98;;;12.34;75.99
62928;BME280;51070;52.236;-0.892;2023-02-03T15:19:23;102252.42;;;12.27;76.39